Wangaratta Aerodrome, Australia
Current Conditions -  °F | °C
As of 10:00 AM on Thursday 18 Dec 2014 (Local Time) from YMAY Reporting Station
Clear Clear  
Wind Chill: 73°   Ceiling: Unl
Heat Index: 73°   Visibility: 6mi
Dew Point: 43°   Wind: 6mph
Humidity: 33%   Direction: 100°E
Pressure: 29.77"   Gusts: NA
Location:  36.42°S, 146.3°E
Report Text: YMAY 172300Z AUTO 10005KT 040V140 9999 // NCD 23/06 Q1008
Loading
Personal Weather Stations






























Interactive Weather Map New forecast layout! Learn more

10-Day Weather Forecast

Advertisements
Track Severe Weather on mobile